Time;durP1;ratioP1;P1;durP2;ratioP2;P2;SDS_P1;SDS_P2;PMS_P1;PMS_P2;Temp;Humidity;BMP_temperature;BMP_pressure;BME280_temperature;BME280_humidity;BME280_pressure;Samples;Min_cycle;Max_cycle;Signal;HPM_P1;HPM_P2
2023/12/14 00:00:43;;;;;;;26.77;9.10;;;7.80;99.90;;;;;;5092139;28;20077;-54
2023/12/14 00:03:09;;;;;;;27.03;9.60;;;7.80;99.90;;;;;;5092237;28;20027;-53
2023/12/14 00:05:35;;;;;;;27.80;9.40;;;7.80;99.90;;;;;;5092472;28;20058;-49
2023/12/14 00:08:01;;;;;;;29.23;9.80;;;7.70;99.90;;;;;;5091897;28;20055;-54
2023/12/14 00:10:26;;;;;;;25.30;8.83;;;7.70;99.90;;;;;;5092014;28;20127;-50
2023/12/14 00:12:54;;;;;;;22.83;8.07;;;7.70;99.90;;;;;;5091972;28;20562;-53
2023/12/14 00:15:20;;;;;;;22.83;7.73;;;7.70;99.90;;;;;;5092131;28;20043;-51
2023/12/14 00:17:45;;;;;;;20.77;5.83;;;7.60;99.90;;;;;;5091945;28;20020;-51
2023/12/14 00:20:11;;;;;;;15.00;6.20;;;7.50;99.90;;;;;;5091479;28;20583;-54
2023/12/14 00:22:37;;;;;;;15.30;6.30;;;7.50;99.90;;;;;;5091980;28;20381;-53
2023/12/14 00:25:04;;;;;;;15.67;5.80;;;7.50;99.90;;;;;;5092030;28;20020;-51
2023/12/14 00:27:30;;;;;;;19.77;5.93;;;7.50;99.90;;;;;;5091879;28;20060;-53
2023/12/14 00:29:55;;;;;;;17.90;6.13;;;7.50;99.90;;;;;;5091846;28;20085;-53
2023/12/14 00:32:21;;;;;;;16.00;5.50;;;7.40;99.90;;;;;;5091844;28;20149;-54
2023/12/14 00:34:47;;;;;;;19.73;6.77;;;7.40;99.90;;;;;;5091725;28;20043;-51
2023/12/14 00:37:12;;;;;;;17.37;5.87;;;7.40;99.90;;;;;;5091785;28;20024;-52
2023/12/14 00:39:38;;;;;;;17.13;5.77;;;7.40;99.90;;;;;;5091807;28;20554;-54
2023/12/14 00:42:04;;;;;;;18.47;6.20;;;7.30;99.90;;;;;;5091923;28;20024;-52
2023/12/14 00:44:29;;;;;;;11.93;5.50;;;7.30;99.90;;;;;;5091816;28;20038;-54
2023/12/14 00:46:55;;;;;;;13.67;5.30;;;7.20;99.90;;;;;;5091723;28;20059;-51
2023/12/14 00:49:20;;;;;;;12.23;5.00;;;7.10;99.90;;;;;;5091651;28;20028;-51
2023/12/14 00:51:46;;;;;;;11.77;4.97;;;7.20;99.90;;;;;;5091575;28;20100;-52
2023/12/14 00:54:12;;;;;;;13.17;5.03;;;7.20;99.90;;;;;;5091608;28;20456;-52
2023/12/14 00:56:37;;;;;;;13.07;5.33;;;7.20;99.90;;;;;;5091584;28;20052;-54
2023/12/14 00:59:03;;;;;;;15.33;4.97;;;7.20;99.90;;;;;;5091686;28;20024;-49
2023/12/14 01:01:28;;;;;;;12.83;5.47;;;7.20;99.90;;;;;;5091641;28;20056;-54
2023/12/14 01:03:54;;;;;;;13.57;5.13;;;7.10;99.90;;;;;;5091936;28;20047;-51
2023/12/14 01:06:20;;;;;;;12.77;4.93;;;7.10;99.90;;;;;;5091406;28;20024;-54
2023/12/14 01:08:45;;;;;;;11.77;5.13;;;7.10;99.90;;;;;;5091598;28;20400;-50
2023/12/14 01:11:11;;;;;;;10.80;4.90;;;7.10;99.90;;;;;;5091335;28;20170;-51
2023/12/14 01:13:37;;;;;;;12.03;6.10;;;7.10;99.90;;;;;;5091558;28;20077;-54
2023/12/14 01:16:02;;;;;;;14.47;5.50;;;7.20;99.90;;;;;;5091421;28;20392;-52
2023/12/14 01:18:28;;;;;;;12.83;5.27;;;7.10;99.90;;;;;;5091354;28;20073;-50
2023/12/14 01:20:54;;;;;;;14.07;4.90;;;7.10;99.90;;;;;;5091404;28;20362;-54
2023/12/14 01:23:19;;;;;;;10.23;3.93;;;7.10;99.90;;;;;;5091494;28;20032;-51
2023/12/14 01:25:45;;;;;;;10.47;4.43;;;7.10;99.90;;;;;;5091455;28;20035;-52
2023/12/14 01:28:10;;;;;;;10.13;3.93;;;7.10;99.90;;;;;;5091429;28;20369;-54
2023/12/14 01:30:36;;;;;;;8.07;3.63;;;7.00;99.90;;;;;;5091317;28;20124;-53
2023/12/14 01:33:02;;;;;;;10.27;4.17;;;7.00;99.90;;;;;;5093300;28;20062;-53
2023/12/14 01:35:29;;;;;;;7.10;3.43;;;7.00;99.90;;;;;;5095107;28;20024;-50
2023/12/14 01:37:55;;;;;;;6.57;2.90;;;7.00;99.90;;;;;;5094771;28;20107;-54
2023/12/14 01:40:21;;;;;;;8.47;3.70;;;6.90;99.90;;;;;;5094774;28;20114;-50
2023/12/14 01:42:46;;;;;;;11.67;3.60;;;6.90;99.90;;;;;;5094931;28;20062;-53
2023/12/14 01:45:15;;;;;;;7.07;3.53;;;6.90;99.90;;;;;;5094871;28;20111;-49
2023/12/14 01:47:42;;;;;;;10.10;4.60;;;6.90;99.90;;;;;;5094570;28;20048;-54
2023/12/14 01:50:07;;;;;;;12.50;5.70;;;6.80;99.90;;;;;;5094673;28;20040;-54
2023/12/14 01:52:33;;;;;;;13.80;5.77;;;6.80;99.90;;;;;;5094737;28;20032;-52
2023/12/14 01:54:59;;;;;;;14.53;5.93;;;6.90;99.90;;;;;;5094715;28;20082;-54
2023/12/14 01:57:24;;;;;;;15.00;6.77;;;6.80;99.90;;;;;;5094536;28;20046;-49
2023/12/14 01:59:50;;;;;;;17.10;6.27;;;6.80;99.90;;;;;;5094491;28;20411;-53
2023/12/14 02:02:16;;;;;;;17.03;6.57;;;6.80;99.90;;;;;;5093126;28;20028;-52
2023/12/14 02:04:42;;;;;;;15.13;6.20;;;6.80;99.90;;;;;;5094497;28;20032;-54
2023/12/14 02:07:07;;;;;;;17.57;7.20;;;6.70;99.90;;;;;;5094291;28;20036;-55
2023/12/14 02:09:33;;;;;;;14.27;5.70;;;6.70;99.90;;;;;;5094345;28;20055;-54
2023/12/14 02:11:59;;;;;;;17.07;6.73;;;6.70;99.90;;;;;;5094306;28;20059;-54
2023/12/14 02:14:24;;;;;;;16.13;6.80;;;6.70;99.90;;;;;;5093032;28;20395;-55
2023/12/14 02:16:50;;;;;;;16.67;6.40;;;6.60;99.90;;;;;;5093986;28;20020;-52
2023/12/14 02:19:15;;;;;;;17.43;7.17;;;6.70;99.90;;;;;;5094106;28;20534;-53
2023/12/14 02:21:41;;;;;;;17.53;6.80;;;6.60;99.90;;;;;;5094193;28;20048;-54
2023/12/14 02:24:07;;;;;;;17.33;6.63;;;6.60;99.90;;;;;;5094099;28;20063;-53
2023/12/14 02:26:32;;;;;;;19.33;8.30;;;6.60;99.90;;;;;;5093968;28;20032;-54
2023/12/14 02:28:58;;;;;;;20.60;8.03;;;6.60;99.90;;;;;;5093939;28;20081;-53
2023/12/14 02:31:24;;;;;;;18.50;7.93;;;6.60;99.90;;;;;;5093916;28;20070;-54
2023/12/14 02:33:49;;;;;;;22.87;8.97;;;6.50;99.90;;;;;;5093861;28;20036;-54
2023/12/14 02:36:15;;;;;;;23.90;8.43;;;6.50;99.90;;;;;;5093739;28;20028;-53
2023/12/14 02:38:41;;;;;;;18.40;8.33;;;6.40;99.90;;;;;;5093757;28;20445;-54
2023/12/14 02:41:06;;;;;;;21.57;9.80;;;6.50;99.90;;;;;;5093708;28;20111;-54
2023/12/14 02:43:33;;;;;;;21.13;9.10;;;6.40;99.90;;;;;;5093448;28;20082;-54
2023/12/14 02:46:01;;;;;;;25.10;9.17;;;6.40;99.90;;;;;;5093676;28;20064;-53
2023/12/14 02:48:29;;;;;;;23.35;8.70;;;6.40;99.90;;;;;;5094142;28;20028;-54
2023/12/14 02:50:55;;;;;;;23.53;9.17;;;6.30;99.90;;;;;;5093396;28;20024;-52
2023/12/14 02:53:20;;;;;;;19.67;7.83;;;6.30;99.90;;;;;;5093517;28;20059;-53
2023/12/14 02:55:46;;;;;;;23.10;8.77;;;6.20;99.90;;;;;;5093379;28;20144;-52
2023/12/14 02:58:12;;;;;;;19.93;7.83;;;6.20;99.90;;;;;;5092220;28;20035;-54
2023/12/14 03:00:37;;;;;;;21.40;7.60;;;6.20;99.90;;;;;;5093252;28;20024;-53
2023/12/14 03:03:03;;;;;;;14.77;6.53;;;6.20;99.90;;;;;;5093502;28;20028;-55
2023/12/14 03:05:28;;;;;;;19.50;7.53;;;6.10;99.90;;;;;;5093345;28;20053;-55
2023/12/14 03:07:54;;;;;;;18.10;7.53;;;6.10;99.90;;;;;;5093060;28;20034;-55
2023/12/14 03:10:20;;;;;;;19.63;7.43;;;6.20;99.90;;;;;;5093110;28;20085;-49
2023/12/14 03:12:45;;;;;;;17.77;6.67;;;6.20;99.90;;;;;;5093000;28;20485;-53
2023/12/14 03:15:11;;;;;;;18.97;7.27;;;6.20;99.90;;;;;;5093144;28;20073;-54
2023/12/14 03:17:37;;;;;;;20.63;8.10;;;6.20;99.90;;;;;;5092893;28;20392;-53
2023/12/14 03:20:05;;;;;;;18.90;6.80;;;6.20;99.90;;;;;;5092959;28;20038;-52
2023/12/14 03:22:30;;;;;;;18.80;7.50;;;6.10;99.90;;;;;;5092908;28;20106;-53
2023/12/14 03:24:56;;;;;;;16.57;6.43;;;6.20;99.90;;;;;;5092896;28;20588;-54
2023/12/14 03:27:23;;;;;;;18.93;6.67;;;6.10;99.90;;;;;;5092817;28;20388;-53
2023/12/14 03:29:48;;;;;;;19.10;7.03;;;6.10;99.90;;;;;;5092707;28;20047;-54
2023/12/14 03:32:14;;;;;;;17.90;6.07;;;6.20;99.90;;;;;;5092782;28;20024;-55
2023/12/14 03:34:40;;;;;;;17.83;6.40;;;6.10;99.90;;;;;;5092568;28;20122;-54
2023/12/14 03:37:06;;;;;;;17.00;6.87;;;6.10;99.90;;;;;;5093045;28;20388;-53
2023/12/14 03:39:32;;;;;;;22.13;7.70;;;6.10;99.90;;;;;;5092522;28;20035;-54
2023/12/14 03:41:57;;;;;;;17.07;6.87;;;6.10;99.90;;;;;;5092601;28;20032;-53
2023/12/14 03:44:24;;;;;;;18.33;7.50;;;6.10;99.90;;;;;;5092579;28;20039;-54
2023/12/14 03:46:50;;;;;;;20.73;7.87;;;6.00;99.90;;;;;;5092491;28;20129;-53
2023/12/14 03:49:15;;;;;;;21.57;7.87;;;6.00;99.90;;;;;;5092393;28;20063;-53
2023/12/14 03:51:41;;;;;;;21.53;8.73;;;6.00;99.90;;;;;;5091148;28;20067;-53
2023/12/14 03:54:07;;;;;;;19.90;7.43;;;6.00;99.90;;;;;;5092325;28;20032;-54
2023/12/14 03:56:32;;;;;;;23.13;8.47;;;6.00;99.90;;;;;;5091654;28;20028;-53
2023/12/14 03:58:58;;;;;;;22.80;8.73;;;6.10;99.90;;;;;;5092193;28;20063;-52
2023/12/14 04:01:24;;;;;;;25.63;8.60;;;6.00;99.90;;;;;;5092272;28;20020;-53
2023/12/14 04:03:49;;;;;;;24.13;9.10;;;6.00;99.90;;;;;;5092278;28;20560;-53
2023/12/14 04:06:15;;;;;;;24.40;8.83;;;6.00;99.90;;;;;;5092056;28;20400;-54
2023/12/14 04:08:41;;;;;;;25.77;9.30;;;5.90;99.90;;;;;;5092062;28;20034;-54
2023/12/14 04:11:08;;;;;;;25.37;9.00;;;5.90;99.90;;;;;;5091969;28;20039;-54
2023/12/14 04:13:34;;;;;;;26.83;9.43;;;5.90;99.90;;;;;;5092057;28;20028;-53
2023/12/14 04:16:01;;;;;;;26.60;9.70;;;5.90;99.90;;;;;;5091958;28;20489;-54
2023/12/14 04:18:27;;;;;;;31.27;9.53;;;5.80;99.90;;;;;;5092192;28;20111;-53
2023/12/14 04:20:52;;;;;;;23.10;8.40;;;5.80;99.90;;;;;;5092040;28;20036;-53
2023/12/14 04:23:18;;;;;;;30.30;10.07;;;5.80;99.90;;;;;;5092098;28;20064;-49
2023/12/14 04:25:44;;;;;;;26.90;9.63;;;5.80;99.90;;;;;;5092128;28;20032;-51
2023/12/14 04:28:10;;;;;;;28.67;9.90;;;5.80;99.90;;;;;;5091826;28;20038;-51
2023/12/14 04:30:35;;;;;;;24.23;8.87;;;5.70;99.90;;;;;;5091831;28;20431;-50
2023/12/14 04:33:01;;;;;;;26.43;9.50;;;5.80;99.90;;;;;;5091816;28;20032;-49
2023/12/14 04:35:27;;;;;;;27.17;9.30;;;5.70;99.90;;;;;;5091805;28;20020;-51
2023/12/14 04:37:52;;;;;;;26.33;9.30;;;5.80;99.90;;;;;;5091689;28;20024;-51
2023/12/14 04:40:18;;;;;;;26.73;9.57;;;5.80;99.90;;;;;;5091722;28;20028;-50
2023/12/14 04:42:44;;;;;;;25.77;9.37;;;5.80;99.90;;;;;;5091805;28;20166;-50
2023/12/14 04:45:10;;;;;;;28.40;9.80;;;5.80;99.90;;;;;;5091917;28;20086;-55
2023/12/14 04:47:36;;;;;;;28.00;9.17;;;5.80;99.90;;;;;;5091640;28;20388;-54
2023/12/14 04:50:02;;;;;;;28.17;9.43;;;5.80;99.90;;;;;;5091716;28;20024;-55
2023/12/14 04:52:28;;;;;;;26.10;9.20;;;5.80;99.90;;;;;;5090412;28;20028;-54
2023/12/14 04:54:54;;;;;;;23.90;8.57;;;5.80;99.90;;;;;;5091656;28;20032;-54
2023/12/14 04:57:19;;;;;;;28.43;8.87;;;5.70;99.90;;;;;;5091929;28;20115;-54
2023/12/14 04:59:45;;;;;;;23.60;8.90;;;5.70;99.90;;;;;;5091651;28;20116;-55
2023/12/14 05:02:10;;;;;;;27.20;8.20;;;5.70;99.90;;;;;;5091436;28;20028;-54
2023/12/14 05:04:36;;;;;;;23.73;7.97;;;5.70;99.90;;;;;;5091585;28;20040;-54
2023/12/14 05:07:02;;;;;;;22.53;7.83;;;5.70;99.90;;;;;;5093602;28;20047;-51
2023/12/14 05:09:28;;;;;;;25.90;8.20;;;5.70;99.90;;;;;;5095423;28;20429;-54
2023/12/14 05:11:53;;;;;;;24.37;7.70;;;5.70;99.90;;;;;;5095225;28;20488;-55
2023/12/14 05:14:19;;;;;;;23.90;7.33;;;5.60;99.90;;;;;;5095344;28;20036;-53
2023/12/14 05:16:44;;;;;;;23.23;8.33;;;5.70;99.90;;;;;;5093941;28;20056;-53
2023/12/14 05:19:10;;;;;;;23.60;7.80;;;5.60;99.90;;;;;;5095193;28;20019;-49
2023/12/14 05:21:36;;;;;;;21.93;7.83;;;5.70;99.90;;;;;;5095234;28;20507;-51
2023/12/14 05:24:02;;;;;;;21.40;7.03;;;5.70;99.90;;;;;;5095243;28;20034;-52
2023/12/14 05:26:28;;;;;;;20.90;6.93;;;5.70;99.90;;;;;;5095104;28;20031;-52
2023/12/14 05:28:53;;;;;;;19.10;6.67;;;5.70;99.90;;;;;;5095095;28;20514;-54
2023/12/14 05:31:19;;;;;;;23.17;7.87;;;5.60;99.90;;;;;;5095037;28;20392;-53
2023/12/14 05:33:45;;;;;;;19.73;7.33;;;5.60;99.90;;;;;;5094976;28;20107;-52
2023/12/14 05:36:10;;;;;;;20.90;7.83;;;5.60;99.90;;;;;;5094883;28;20473;-54
2023/12/14 05:38:38;;;;;;;19.23;7.73;;;5.60;99.90;;;;;;5094853;28;20429;-53
2023/12/14 05:41:04;;;;;;;23.33;7.53;;;5.60;99.90;;;;;;5094661;28;20031;-54
2023/12/14 05:43:29;;;;;;;21.10;7.30;;;5.60;99.90;;;;;;5094810;28;20020;-53
2023/12/14 05:45:55;;;;;;;21.33;7.50;;;5.60;99.90;;;;;;5094643;28;20477;-52
2023/12/14 05:48:20;;;;;;;25.43;7.50;;;5.60;99.90;;;;;;5093318;28;20039;-53
2023/12/14 05:50:46;;;;;;;21.53;8.40;;;5.60;99.90;;;;;;5094691;28;20115;-54
2023/12/14 05:53:12;;;;;;;22.33;9.07;;;5.60;99.90;;;;;;5094606;28;20032;-53
2023/12/14 05:55:39;;;;;;;21.97;7.93;;;5.60;99.90;;;;;;5094495;28;20137;-54
2023/12/14 05:58:05;;;;;;;23.97;8.27;;;5.50;99.90;;;;;;5094390;28;20114;-54
2023/12/14 06:00:31;;;;;;;29.03;9.60;;;5.60;99.90;;;;;;5094337;28;20085;-54
2023/12/14 06:02:57;;;;;;;26.80;8.83;;;5.60;99.90;;;;;;5094439;28;20477;-52
2023/12/14 06:05:23;;;;;;;28.90;9.43;;;5.60;99.90;;;;;;5094560;28;20031;-53
2023/12/14 06:07:48;;;;;;;31.43;9.53;;;5.60;99.90;;;;;;5094164;28;20058;-54
2023/12/14 06:10:14;;;;;;;30.33;9.03;;;5.60;99.90;;;;;;5094140;28;20024;-53
2023/12/14 06:12:39;;;;;;;25.47;9.50;;;5.60;99.90;;;;;;5094536;28;20389;-53
2023/12/14 06:15:06;;;;;;;29.83;9.70;;;5.60;99.90;;;;;;5094222;28;20433;-51
2023/12/14 06:17:33;;;;;;;26.13;9.63;;;5.50;99.90;;;;;;5093562;28;20028;-53
2023/12/14 06:19:59;;;;;;;23.90;8.07;;;5.60;99.90;;;;;;5093948;28;20036;-53
2023/12/14 06:22:26;;;;;;;25.87;8.33;;;5.60;99.90;;;;;;5094059;28;20070;-53
2023/12/14 06:24:51;;;;;;;28.70;8.80;;;5.50;99.90;;;;;;5093907;28;20362;-52
2023/12/14 06:27:17;;;;;;;24.20;7.73;;;5.60;99.90;;;;;;5093901;28;20097;-55
2023/12/14 06:29:43;;;;;;;22.93;8.00;;;5.50;99.90;;;;;;5093897;28;20032;-52
2023/12/14 06:32:08;;;;;;;26.77;9.00;;;5.60;99.90;;;;;;5093924;28;20028;-54
2023/12/14 06:34:34;;;;;;;29.23;9.20;;;5.60;99.90;;;;;;5092532;28;20024;-55
2023/12/14 06:37:00;;;;;;;27.57;8.73;;;5.60;99.90;;;;;;5093845;28;20166;-50
2023/12/14 06:39:25;;;;;;;30.17;9.43;;;5.60;99.90;;;;;;5093580;28;20024;-53
2023/12/14 06:41:54;;;;;;;27.73;9.77;;;5.50;99.90;;;;;;5093688;28;20028;-54
2023/12/14 06:44:20;;;;;;;26.65;8.73;;;5.60;99.90;;;;;;5093704;28;20032;-54
2023/12/14 06:46:45;;;;;;;29.30;10.07;;;5.60;99.90;;;;;;5093515;28;20472;-53
2023/12/14 06:49:11;;;;;;;27.60;8.77;;;5.60;99.90;;;;;;5093538;28;20085;-54
2023/12/14 06:51:36;;;;;;;34.17;11.30;;;5.60;99.90;;;;;;5093512;28;20427;-54
2023/12/14 06:54:02;;;;;;;28.67;10.17;;;5.60;99.90;;;;;;5093284;28;20024;-54
2023/12/14 06:56:28;;;;;;;36.33;10.67;;;5.60;99.90;;;;;;5093293;28;20388;-51
2023/12/14 06:58:53;;;;;;;34.20;10.73;;;5.60;99.90;;;;;;5093280;28;20030;-54
2023/12/14 07:01:19;;;;;;;30.90;10.83;;;5.50;99.90;;;;;;5093400;28;20025;-53
2023/12/14 07:03:45;;;;;;;36.33;11.10;;;5.50;99.90;;;;;;5093414;28;20035;-53
2023/12/14 07:06:15;;;;;;;32.53;10.37;;;5.50;99.90;;;;;;5093248;28;20088;-51
2023/12/14 07:08:41;;;;;;;30.63;9.60;;;5.50;99.90;;;;;;5093021;28;20395;-52
2023/12/14 07:11:08;;;;;;;32.73;11.20;;;5.50;99.90;;;;;;5093016;28;20059;-53
2023/12/14 07:13:36;;;;;;;29.20;10.50;;;5.40;99.90;;;;;;5093246;28;20059;-53
2023/12/14 07:16:05;;;;;;;34.37;11.40;;;5.40;99.90;;;;;;5093248;28;20394;-56
2023/12/14 07:18:31;;;;;;;32.33;10.20;;;5.40;99.90;;;;;;5092894;28;20024;-51
2023/12/14 07:20:57;;;;;;;34.47;11.77;;;5.40;99.90;;;;;;5092877;28;20031;-53
2023/12/14 07:23:22;;;;;;;30.73;10.37;;;5.30;99.90;;;;;;5092918;28;20392;-53
2023/12/14 07:25:48;;;;;;;31.77;11.00;;;5.30;99.90;;;;;;5092984;28;20027;-53
2023/12/14 07:28:13;;;;;;;36.10;12.20;;;5.30;99.90;;;;;;5092844;28;20395;-54
2023/12/14 07:30:39;;;;;;;33.83;11.77;;;5.40;99.90;;;;;;5091715;28;20055;-53
2023/12/14 07:33:04;;;;;;;29.60;11.20;;;5.40;99.90;;;;;;5092668;28;20122;-54
2023/12/14 07:35:30;;;;;;;37.37;11.93;;;5.40;99.90;;;;;;5092580;28;20028;-54
2023/12/14 07:37:56;;;;;;;33.70;12.73;;;5.30;99.90;;;;;;5092523;28;20168;-54
2023/12/14 07:40:21;;;;;;;37.20;13.63;;;5.40;99.90;;;;;;5092490;28;20373;-52
2023/12/14 07:42:47;;;;;;;41.27;13.00;;;5.50;99.90;;;;;;5092716;28;20028;-54
2023/12/14 07:45:12;;;;;;;44.00;13.70;;;5.40;99.90;;;;;;5092521;28;20031;-52
2023/12/14 07:47:38;;;;;;;39.30;13.43;;;5.40;99.90;;;;;;5091021;28;20459;-54
2023/12/14 07:50:04;;;;;;;42.83;13.50;;;5.40;99.90;;;;;;5092363;28;20132;-54
2023/12/14 07:52:30;;;;;;;40.43;13.07;;;5.30;99.90;;;;;;5092436;28;20484;-53
2023/12/14 07:54:55;;;;;;;39.07;13.53;;;5.20;99.90;;;;;;5092487;28;20040;-53
2023/12/14 07:57:21;;;;;;;40.27;12.93;;;5.20;99.90;;;;;;5092147;28;20111;-52
2023/12/14 07:59:47;;;;;;;41.30;13.23;;;5.20;99.90;;;;;;5092229;28;20036;-53
2023/12/14 08:02:12;;;;;;;35.23;11.43;;;5.20;99.90;;;;;;5092265;28;20035;-51
2023/12/14 08:04:38;;;;;;;38.50;12.97;;;5.20;99.90;;;;;;5092251;28;20028;-50
2023/12/14 08:07:04;;;;;;;44.13;13.20;;;5.20;99.90;;;;;;5092072;28;20171;-54
2023/12/14 08:09:30;;;;;;;39.43;12.90;;;5.20;99.90;;;;;;5092168;28;20147;-52
2023/12/14 08:11:55;;;;;;;30.20;11.60;;;5.20;99.90;;;;;;5091931;28;20123;-51
2023/12/14 08:14:21;;;;;;;35.53;11.63;;;5.20;99.90;;;;;;5092042;28;20031;-50
2023/12/14 08:16:46;;;;;;;31.43;11.77;;;5.20;99.90;;;;;;5091935;28;20035;-52
2023/12/14 08:19:12;;;;;;;37.60;12.20;;;5.20;99.90;;;;;;5091914;28;20020;-55
2023/12/14 08:21:37;;;;;;;40.50;12.60;;;5.20;99.90;;;;;;5091875;28;20115;-54
2023/12/14 08:24:04;;;;;;;33.23;12.03;;;5.20;99.90;;;;;;5091964;28;20027;-53
2023/12/14 08:26:29;;;;;;;35.40;11.73;;;5.30;99.90;;;;;;5092181;28;20024;-52
2023/12/14 08:28:55;;;;;;;40.17;11.57;;;5.20;99.90;;;;;;5091743;28;20353;-51
2023/12/14 08:31:20;;;;;;;34.27;11.80;;;5.20;99.90;;;;;;5091817;28;20103;-54
2023/12/14 08:33:46;;;;;;;38.17;10.50;;;5.20;99.90;;;;;;5091782;28;20074;-54
2023/12/14 08:36:16;;;;;;;33.03;11.13;;;5.20;99.90;;;;;;5091708;28;20111;-51
2023/12/14 08:38:42;;;;;;;32.70;11.87;;;5.20;99.90;;;;;;5091738;28;20028;-54
2023/12/14 08:41:07;;;;;;;36.47;11.93;;;5.20;99.90;;;;;;5092354;28;20032;-53
2023/12/14 08:43:33;;;;;;;31.63;10.37;;;5.30;99.90;;;;;;5096064;28;20333;-52
2023/12/14 08:45:59;;;;;;;33.17;11.83;;;5.30;99.90;;;;;;5095857;28;20098;-54
2023/12/14 08:48:24;;;;;;;32.97;11.47;;;5.30;99.90;;;;;;5095743;28;20031;-53
2023/12/14 08:50:52;;;;;;;34.77;11.60;;;5.30;99.90;;;;;;5095808;28;20035;-54
2023/12/14 08:53:18;;;;;;;29.37;10.67;;;5.30;99.90;;;;;;5095864;28;20032;-54
2023/12/14 08:55:44;;;;;;;33.07;11.00;;;5.20;99.90;;;;;;5095797;28;20028;-55
2023/12/14 08:58:09;;;;;;;28.37;10.93;;;5.20;99.90;;;;;;5095694;28;20111;-53
2023/12/14 09:00:35;;;;;;;26.17;9.90;;;5.20;99.90;;;;;;5095640;28;20027;-54
2023/12/14 09:03:01;;;;;;;30.23;11.17;;;5.20;99.90;;;;;;5094460;28;20032;-50
2023/12/14 09:05:26;;;;;;;31.30;11.00;;;5.30;99.90;;;;;;5095716;28;20024;-54
2023/12/14 09:07:55;;;;;;;28.10;9.87;;;5.30;99.90;;;;;;5095535;28;20549;-52
2023/12/14 09:10:22;;;;;;;24.50;9.77;;;5.40;99.90;;;;;;5095595;28;20020;-54
2023/12/14 09:12:48;;;;;;;30.17;10.97;;;5.40;99.90;;;;;;5095513;28;20081;-52
2023/12/14 09:15:15;;;;;;;26.27;11.00;;;5.40;99.90;;;;;;5095400;28;20032;-51
2023/12/14 09:17:42;;;;;;;26.43;10.13;;;5.40;99.90;;;;;;5094018;28;20032;-54
2023/12/14 09:20:08;;;;;;;29.77;10.10;;;5.40;99.90;;;;;;5095438;28;20115;-51
2023/12/14 09:22:34;;;;;;;25.77;9.23;;;5.40;99.90;;;;;;5095573;28;20055;-54
2023/12/14 09:24:59;;;;;;;32.20;10.57;;;5.40;99.90;;;;;;5095281;28;20055;-54
2023/12/14 09:27:25;;;;;;;25.73;10.37;;;5.40;99.90;;;;;;5095097;28;20476;-55
2023/12/14 09:29:51;;;;;;;27.53;10.50;;;5.40;99.90;;;;;;5095110;28;20031;-54
2023/12/14 09:32:17;;;;;;;29.73;10.40;;;5.40;99.90;;;;;;5095064;28;20392;-55
2023/12/14 09:34:44;;;;;;;26.77;9.73;;;5.40;99.90;;;;;;5095062;28;20118;-55
2023/12/14 09:37:11;;;;;;;27.30;10.13;;;5.40;99.90;;;;;;5094963;28;20031;-55
2023/12/14 09:39:36;;;;;;;31.03;10.30;;;5.40;99.90;;;;;;5094888;28;20112;-51
2023/12/14 09:42:07;;;;;;;25.67;9.67;;;5.40;99.90;;;;;;5094925;28;20111;-52
2023/12/14 09:44:34;;;;;;;26.00;10.07;;;5.40;99.90;;;;;;5095049;28;20032;-54
2023/12/14 09:47:02;;;;;;;25.87;9.60;;;5.40;99.90;;;;;;5094702;28;20036;-52
2023/12/14 09:49:29;;;;;;;23.47;9.00;;;5.40;99.90;;;;;;5094752;28;20089;-55
2023/12/14 09:51:59;;;;;;;23.57;8.67;;;5.30;99.90;;;;;;5094768;28;20477;-50
2023/12/14 09:54:27;;;;;;;26.73;9.00;;;5.40;99.90;;;;;;5093512;28;20028;-55
2023/12/14 09:56:53;;;;;;;24.27;8.85;;;5.30;99.90;;;;;;5094635;28;20020;-52
2023/12/14 09:59:20;;;;;;;19.87;8.23;;;5.40;99.90;;;;;;5094611;28;20032;-54
2023/12/14 10:01:46;;;;;;;20.57;8.27;;;5.40;99.90;;;;;;5094614;28;20055;-51
2023/12/14 10:04:19;;;;;;;21.57;9.23;;;5.50;99.90;;;;;;5094616;28;20059;-49
2023/12/14 10:06:47;;;;;;;21.30;8.80;;;5.40;99.90;;;;;;5094408;28;20107;-53
2023/12/14 10:09:15;;;;;;;21.50;8.47;;;5.40;99.90;;;;;;5076197;28;20027;-53
2023/12/14 10:11:42;;;;;;;20.40;8.43;;;5.50;99.90;;;;;;5094255;28;20040;-55
2023/12/14 10:14:29;;;;;;;23.83;8.53;;;5.50;99.90;;;;;;5094157;28;20032;-52
2023/12/14 10:16:55;;;;;;;22.77;8.57;;;5.50;99.90;;;;;;5094263;28;20032;-52
2023/12/14 10:19:21;;;;;;;22.17;7.83;;;5.50;99.90;;;;;;5094236;28;20065;-55
2023/12/14 10:21:48;;;;;;;17.97;6.80;;;5.60;99.90;;;;;;5094145;28;20369;-54
2023/12/14 10:24:14;;;;;;;23.13;8.60;;;5.50;99.90;;;;;;5094253;28;20036;-54
2023/12/14 10:26:40;;;;;;;22.77;7.83;;;5.50;99.90;;;;;;5094035;28;20066;-52
2023/12/14 10:29:07;;;;;;;19.43;7.97;;;5.50;99.90;;;;;;5094302;28;20426;-52
2023/12/14 10:31:37;;;;;;;19.63;8.07;;;5.60;99.90;;;;;;5094045;28;20028;-55
2023/12/14 10:34:03;;;;;;;21.67;8.60;;;5.50;99.90;;;;;;5093987;28;20046;-54
2023/12/14 10:36:30;;;;;;;20.50;7.83;;;5.50;99.90;;;;;;5093929;28;20566;-54
2023/12/14 10:38:58;;;;;;;21.50;8.23;;;5.50;99.90;;;;;;5093754;28;20024;-53
2023/12/14 10:41:24;;;;;;;19.83;8.10;;;5.50;99.90;;;;;;5093833;28;20028;-55
2023/12/14 10:43:57;;;;;;;25.77;8.50;;;5.50;99.90;;;;;;5094196;28;20031;-55
2023/12/14 10:46:26;;;;;;;18.93;7.50;;;5.50;99.90;;;;;;5093746;28;20032;-55
2023/12/14 10:48:53;;;;;;;19.33;7.80;;;5.60;99.90;;;;;;5092346;28;20056;-55
2023/12/14 10:51:23;;;;;;;15.70;6.20;;;5.60;99.90;;;;;;5093673;28;20039;-51
2023/12/14 10:53:49;;;;;;;16.77;6.80;;;5.60;99.90;;;;;;5093495;28;20431;-54
2023/12/14 10:56:17;;;;;;;16.83;6.50;;;5.60;99.90;;;;;;5093475;28;20073;-53
2023/12/14 10:58:46;;;;;;;18.80;7.17;;;5.50;99.90;;;;;;5093787;28;20418;-53
2023/12/14 11:01:16;;;;;;;17.33;7.03;;;5.50;99.90;;;;;;5093476;28;20106;-54
2023/12/14 11:03:44;;;;;;;18.50;7.13;;;5.50;99.90;;;;;;5093425;28;20333;-53
2023/12/14 11:06:24;;;;;;;18.27;6.97;;;5.50;99.90;;;;;;5093088;28;20536;-50
2023/12/14 11:08:56;;;;;;;18.77;7.87;;;5.50;99.90;;;;;;5093184;28;20100;-52
2023/12/14 11:11:22;;;;;;;16.57;7.03;;;5.50;99.90;;;;;;5093125;28;20024;-51
2023/12/14 11:13:53;;;;;;;17.47;6.90;;;5.40;99.90;;;;;;5093107;28;20431;-53
2023/12/14 11:16:28;;;;;;;18.13;7.50;;;5.40;99.90;;;;;;5092957;28;20024;-50
2023/12/14 11:19:21;;;;;;;18.30;7.20;;;5.50;99.90;;;;;;5092837;28;20051;-54
2023/12/14 11:21:48;;;;;;;14.17;5.87;;;5.50;99.90;;;;;;5093002;28;20027;-54
2023/12/14 11:24:14;;;;;;;18.53;6.23;;;5.50;99.90;;;;;;5093057;28;20024;-55
2023/12/14 11:26:40;;;;;;;12.43;5.37;;;5.50;99.90;;;;;;5092893;28;20550;-55
2023/12/14 11:29:07;;;;;;;15.30;5.93;;;5.60;99.90;;;;;;5092783;28;20028;-51
2023/12/14 11:31:33;;;;;;;13.47;5.23;;;5.50;99.90;;;;;;5092898;28;20023;-52
2023/12/14 11:34:04;;;;;;;17.30;6.63;;;5.50;99.90;;;;;;5092752;28;20028;-53
2023/12/14 11:36:30;;;;;;;12.97;5.83;;;5.60;99.90;;;;;;5092819;28;20024;-52
2023/12/14 11:38:55;;;;;;;16.77;6.10;;;5.50;99.90;;;;;;5092662;28;20034;-55
2023/12/14 11:41:21;;;;;;;14.47;5.73;;;5.60;99.90;;;;;;5092551;28;20039;-52
2023/12/14 11:43:47;;;;;;;16.57;6.03;;;5.50;99.90;;;;;;5092625;28;20082;-54
2023/12/14 11:46:14;;;;;;;13.00;4.90;;;5.50;99.90;;;;;;5092483;28;20028;-55
2023/12/14 11:48:39;;;;;;;13.50;4.83;;;5.50;99.90;;;;;;5092505;28;20032;-54
2023/12/14 11:51:05;;;;;;;12.87;5.53;;;5.40;99.90;;;;;;5092390;28;20032;-52
2023/12/14 11:53:32;;;;;;;12.90;5.43;;;5.40;99.90;;;;;;5092346;28;20054;-54
2023/12/14 11:56:02;;;;;;;12.80;5.13;;;5.40;99.90;;;;;;5092039;28;20503;-53
2023/12/14 11:58:28;;;;;;;10.43;4.27;;;5.40;99.90;;;;;;5092324;28;20067;-54
2023/12/14 12:00:55;;;;;;;10.80;4.53;;;5.40;99.90;;;;;;5092308;28;20074;-55
2023/12/14 12:03:20;;;;;;;14.10;5.13;;;5.30;99.90;;;;;;5092335;28;20028;-55
2023/12/14 12:05:49;;;;;;;12.27;3.73;;;5.30;99.90;;;;;;5092413;28;20035;-52
2023/12/14 12:08:16;;;;;;;10.50;4.17;;;5.30;99.90;;;;;;5092723;28;20028;-54
2023/12/14 12:10:43;;;;;;;14.40;4.37;;;5.40;99.90;;;;;;5092057;28;20032;-55
2023/12/14 12:13:14;;;;;;;14.60;4.90;;;5.30;99.90;;;;;;5090868;28;20111;-54
2023/12/14 12:15:40;;;;;;;10.77;4.33;;;5.30;99.90;;;;;;5091690;28;20028;-50
2023/12/14 12:18:14;;;;;;;11.70;4.17;;;5.30;99.90;;;;;;5091954;28;20032;-52
2023/12/14 12:20:40;;;;;;;11.37;4.93;;;5.30;99.90;;;;;;5092077;28;20560;-53
2023/12/14 12:23:06;;;;;;;11.63;4.23;;;5.30;99.90;;;;;;5092068;28;20020;-50
2023/12/14 12:25:33;;;;;;;10.90;4.23;;;5.30;99.90;;;;;;5092004;28;20115;-53
2023/12/14 12:28:00;;;;;;;11.70;4.30;;;5.20;99.90;;;;;;5091844;28;20034;-54
2023/12/14 12:30:26;;;;;;;12.47;4.77;;;5.20;99.90;;;;;;5090541;28;20493;-53
2023/12/14 12:32:52;;;;;;;10.90;4.77;;;5.30;99.90;;;;;;5092006;28;20372;-55
2023/12/14 12:35:21;;;;;;;18.13;4.57;;;5.20;99.90;;;;;;5091902;28;20037;-54
2023/12/14 12:37:53;;;;;;;11.30;4.67;;;5.30;99.90;;;;;;5091583;28;20035;-55
2023/12/14 12:40:23;;;;;;;14.53;5.40;;;5.30;99.90;;;;;;5091731;28;20036;-54